createdAt,value
2023-05-14T00:00:55.391Z,30.10
2023-05-14T00:01:54.411Z,29.81
2023-05-14T00:02:54.572Z,27.54
2023-05-14T00:03:54.515Z,30.90
2023-05-14T00:04:55.458Z,32.67
2023-05-14T00:05:55.480Z,30.81
2023-05-14T00:06:55.516Z,28.06
2023-05-14T00:07:55.574Z,27.93
2023-05-14T00:08:55.587Z,31.96
2023-05-14T00:09:54.654Z,30.28
2023-05-14T00:10:54.666Z,31.09
2023-05-14T00:11:55.681Z,28.14
2023-05-14T00:12:55.703Z,31.70
2023-05-14T00:13:55.731Z,28.02
2023-05-14T00:14:55.776Z,30.18
2023-05-14T00:15:54.867Z,27.90
2023-05-14T00:16:54.823Z,29.25
2023-05-14T00:17:55.929Z,28.21
2023-05-14T00:18:55.908Z,31.09
2023-05-14T00:19:55.908Z,26.76
2023-05-14T00:20:55.022Z,31.17
2023-05-14T00:21:55.976Z,28.51
2023-05-14T00:22:55.018Z,28.74
2023-05-14T00:23:55.069Z,33.78
2023-05-14T00:24:56.099Z,32.07
2023-05-14T00:25:56.149Z,28.71
2023-05-14T00:26:56.180Z,31.10
2023-05-14T00:27:55.196Z,31.13
2023-05-14T00:28:55.260Z,31.97
2023-05-14T00:29:55.287Z,31.77
2023-05-14T00:30:55.337Z,30.04
2023-05-14T00:31:56.346Z,30.79
2023-05-14T00:32:55.423Z,30.91
2023-05-14T00:33:55.401Z,31.10
2023-05-14T00:34:56.427Z,29.92
2023-05-14T00:35:55.462Z,29.82
2023-05-14T00:36:56.485Z,27.04
2023-05-14T00:37:55.554Z,29.24
2023-05-14T00:38:56.571Z,29.95
2023-05-14T00:39:55.583Z,29.62
2023-05-14T00:40:55.628Z,27.75
2023-05-14T00:41:55.685Z,30.43
2023-05-14T00:42:55.668Z,29.76
2023-05-14T00:43:56.733Z,29.30
2023-05-14T00:44:56.764Z,30.88
2023-05-14T00:45:55.801Z,32.44
2023-05-14T00:46:56.895Z,30.86
2023-05-14T00:47:56.923Z,31.35
2023-05-14T00:48:55.897Z,27.79
2023-05-14T00:49:55.956Z,30.37
2023-05-14T00:50:55.929Z,30.06
2023-05-14T00:51:56.923Z,31.38
2023-05-14T00:52:55.951Z,30.79
2023-05-14T00:53:56.953Z,27.95
2023-05-14T00:54:57.018Z,31.51
2023-05-14T00:55:56.017Z,34.66
2023-05-14T00:56:57.037Z,30.48
2023-05-14T00:57:56.091Z,30.42
2023-05-14T00:58:56.074Z,30.02
2023-05-14T00:59:56.103Z,28.75
2023-05-14T01:00:56.155Z,31.89
2023-05-14T01:01:56.099Z,30.64
2023-05-14T01:02:57.195Z,28.25
2023-05-14T01:03:57.316Z,29.98
2023-05-14T01:04:56.152Z,28.49
2023-05-14T01:05:56.155Z,30.32
2023-05-14T01:06:57.157Z,29.82
2023-05-14T01:07:56.176Z,31.67
2023-05-14T01:08:56.179Z,30.30
2023-05-14T01:09:56.184Z,30.77
2023-05-14T01:10:57.166Z,28.34
2023-05-14T01:11:56.163Z,30.26
2023-05-14T01:12:56.173Z,30.58
2023-05-14T01:13:57.185Z,31.64
2023-05-14T01:14:57.169Z,31.81
2023-05-14T01:15:57.184Z,29.07
2023-05-14T01:16:57.223Z,27.86
2023-05-14T01:17:57.233Z,29.92
2023-05-14T01:18:56.245Z,31.25
2023-05-14T01:19:57.200Z,32.33
2023-05-14T01:20:57.212Z,31.59
2023-05-14T01:21:57.237Z,30.06
2023-05-14T01:22:57.260Z,31.18
2023-05-14T01:23:57.295Z,32.82
2023-05-14T01:24:56.299Z,28.36
2023-05-14T01:25:56.329Z,30.25
2023-05-14T01:26:56.389Z,29.01
2023-05-14T01:27:57.351Z,27.03
2023-05-14T01:28:57.378Z,29.91
2023-05-14T01:29:56.419Z,26.61
2023-05-14T01:30:56.418Z,32.48
2023-05-14T01:31:57.471Z,27.81
2023-05-14T01:32:57.439Z,28.99
2023-05-14T01:33:56.398Z,32.14
2023-05-14T01:34:56.411Z,30.57
2023-05-14T01:35:57.421Z,30.07
2023-05-14T01:36:57.426Z,26.35
2023-05-14T01:37:56.441Z,30.16
2023-05-14T01:38:57.457Z,32.64
2023-05-14T01:39:57.463Z,29.87
2023-05-14T01:40:57.484Z,31.90
2023-05-14T01:41:57.484Z,31.06
2023-05-14T01:42:57.512Z,32.01
2023-05-14T01:43:57.474Z,28.17
2023-05-14T01:44:57.499Z,31.11
2023-05-14T01:45:57.567Z,31.68
2023-05-14T01:46:57.499Z,29.93
2023-05-14T01:47:56.592Z,29.53
2023-05-14T01:48:57.494Z,26.08
2023-05-14T01:49:57.505Z,26.66
2023-05-14T01:50:56.493Z,28.35
2023-05-14T01:51:57.496Z,29.67
2023-05-14T01:52:57.505Z,28.23
2023-05-14T01:53:57.502Z,29.14
2023-05-14T01:54:57.499Z,29.35
2023-05-14T01:55:57.512Z,30.19
2023-05-14T01:56:57.518Z,29.42
2023-05-14T01:57:56.564Z,28.61
2023-05-14T01:58:56.552Z,31.39
2023-05-14T01:59:57.560Z,31.44
2023-05-14T02:00:57.593Z,28.12
2023-05-14T02:01:57.635Z,28.62
2023-05-14T02:02:57.646Z,32.78
2023-05-14T02:03:57.582Z,28.54
2023-05-14T02:04:56.554Z,25.19
2023-05-14T02:05:56.564Z,26.75
2023-05-14T02:06:56.559Z,30.18
2023-05-14T02:07:57.551Z,29.85
2023-05-14T02:08:57.556Z,29.37
2023-05-14T02:09:56.570Z,27.82
2023-05-14T02:10:57.550Z,27.92
2023-05-14T02:11:57.552Z,28.56
2023-05-14T02:12:57.549Z,30.06
2023-05-14T02:13:56.561Z,29.93
2023-05-14T02:14:57.537Z,28.71
2023-05-14T02:15:56.568Z,32.16
2023-05-14T02:16:56.537Z,28.69
2023-05-14T02:17:56.625Z,28.95
2023-05-14T02:18:56.594Z,30.46
2023-05-14T02:19:56.527Z,30.84
2023-05-14T02:20:57.540Z,32.79
2023-05-14T02:21:56.518Z,31.16
2023-05-14T02:22:56.507Z,31.22
2023-05-14T02:23:57.521Z,30.24
2023-05-14T02:24:56.523Z,29.04
2023-05-14T02:25:56.517Z,34.64
2023-05-14T02:26:57.509Z,28.33
2023-05-14T02:27:56.500Z,27.92
2023-05-14T02:28:56.487Z,30.13
2023-05-14T02:29:57.496Z,29.73
2023-05-14T02:30:57.575Z,32.38
2023-05-14T02:31:57.542Z,31.22
2023-05-14T02:32:56.570Z,28.57
2023-05-14T02:33:56.487Z,29.89
2023-05-14T02:34:57.479Z,30.64
2023-05-14T02:35:57.498Z,33.97
2023-05-14T02:36:56.459Z,30.29
2023-05-14T02:37:57.480Z,32.88
2023-05-14T02:38:57.502Z,29.99
2023-05-14T02:39:57.458Z,30.39
2023-05-14T02:40:56.470Z,29.69
2023-05-14T02:41:57.450Z,32.53
2023-05-14T02:42:56.466Z,30.55
2023-05-14T02:43:57.465Z,28.33
2023-05-14T02:44:56.450Z,29.81
2023-05-14T02:45:56.460Z,31.88
2023-05-14T02:46:57.476Z,29.10
2023-05-14T02:47:56.543Z,28.52
2023-05-14T02:48:56.459Z,30.35
2023-05-14T02:49:56.470Z,27.90
2023-05-14T02:50:57.446Z,28.74
2023-05-14T02:51:56.448Z,30.15
2023-05-14T02:52:57.419Z,28.53
2023-05-14T02:53:56.423Z,30.21
2023-05-14T02:54:56.417Z,31.20
2023-05-14T02:55:56.418Z,30.01
2023-05-14T02:56:57.438Z,30.43
2023-05-14T02:57:57.441Z,30.58
2023-05-14T02:58:57.427Z,28.09
2023-05-14T02:59:57.424Z,30.19
2023-05-14T03:00:56.519Z,30.91
2023-05-14T03:01:57.434Z,31.30
2023-05-14T03:02:56.468Z,29.55
2023-05-14T03:03:57.398Z,30.92
2023-05-14T03:04:57.390Z,29.65
2023-05-14T03:05:56.415Z,31.14
2023-05-14T03:06:56.386Z,28.79
2023-05-14T03:07:56.384Z,29.04
2023-05-14T03:08:57.390Z,30.14
2023-05-14T03:09:56.412Z,31.07
2023-05-14T03:10:56.411Z,28.45
2023-05-14T03:11:56.378Z,26.77
2023-05-14T03:12:56.384Z,29.09
2023-05-14T03:13:57.393Z,28.45
2023-05-14T03:14:56.402Z,33.72
2023-05-14T03:15:57.445Z,27.72
2023-05-14T03:16:57.422Z,29.69
2023-05-14T03:17:57.416Z,29.83
2023-05-14T03:18:56.414Z,28.72
2023-05-14T03:19:56.383Z,31.42
2023-05-14T03:20:57.385Z,28.46
2023-05-14T03:21:57.419Z,29.06
2023-05-14T03:22:56.396Z,30.75
2023-05-14T03:23:56.364Z,30.50
2023-05-14T03:24:57.372Z,29.73
2023-05-14T03:25:57.414Z,30.87
2023-05-14T03:26:56.367Z,32.38
2023-05-14T03:27:57.383Z,28.36
2023-05-14T03:28:56.370Z,30.15
2023-05-14T03:29:57.375Z,30.72
2023-05-14T03:30:57.451Z,27.84
2023-05-14T03:31:57.385Z,29.98
2023-05-14T03:32:57.423Z,29.52
2023-05-14T03:33:57.368Z,27.60
2023-05-14T03:34:57.360Z,30.94
2023-05-14T03:35:57.365Z,29.69
2023-05-14T03:36:56.357Z,29.43
2023-05-14T03:37:56.371Z,31.96
2023-05-14T03:38:56.360Z,30.38
2023-05-14T03:39:57.362Z,31.83
2023-05-14T03:40:57.395Z,27.54
2023-05-14T03:41:57.362Z,31.84
2023-05-14T03:42:57.355Z,31.20
2023-05-14T03:43:57.348Z,28.27
2023-05-14T03:44:56.364Z,28.16
2023-05-14T03:45:56.375Z,28.57
2023-05-14T03:46:57.357Z,31.80
2023-05-14T03:47:57.415Z,30.62
2023-05-14T03:48:56.379Z,30.38
2023-05-14T03:49:57.356Z,30.45
2023-05-14T03:50:56.356Z,29.60
2023-05-14T03:51:57.347Z,28.78
2023-05-14T03:52:56.340Z,28.88
2023-05-14T03:53:56.379Z,28.54
2023-05-14T03:54:57.363Z,27.25
2023-05-14T03:55:56.348Z,27.68
2023-05-14T03:56:57.386Z,28.79
2023-05-14T03:57:56.365Z,27.82
2023-05-14T03:58:57.360Z,31.93
2023-05-14T03:59:56.389Z,30.54
2023-05-14T04:00:57.370Z,31.21
2023-05-14T04:01:56.374Z,30.18
2023-05-14T04:02:57.403Z,31.70
2023-05-14T04:03:56.436Z,32.09
2023-05-14T04:04:57.395Z,31.61
2023-05-14T04:05:56.374Z,29.37
2023-05-14T04:06:57.380Z,30.10
2023-05-14T04:07:56.375Z,29.17
2023-05-14T04:08:57.371Z,30.16
2023-05-14T04:09:57.400Z,28.22
2023-05-14T04:10:57.374Z,31.22
2023-05-14T04:11:57.390Z,29.46
2023-05-14T04:12:57.389Z,29.55
2023-05-14T04:13:57.374Z,28.18
2023-05-14T04:14:57.369Z,28.91
2023-05-14T04:15:56.414Z,30.11
2023-05-14T04:16:58.238Z,23.13
2023-05-14T04:17:56.398Z,32.60
2023-05-14T04:18:56.397Z,31.93
2023-05-14T04:19:57.359Z,31.88
2023-05-14T04:20:56.347Z,29.29
2023-05-14T04:21:57.341Z,31.56
2023-05-14T04:22:57.337Z,30.30
2023-05-14T04:23:56.330Z,31.09
2023-05-14T04:24:57.327Z,32.14
2023-05-14T04:25:57.332Z,33.17
2023-05-14T04:26:57.303Z,33.28
2023-05-14T04:27:57.305Z,30.78
2023-05-14T04:28:56.296Z,29.05
2023-05-14T04:29:56.313Z,30.45
2023-05-14T04:30:57.299Z,31.38
2023-05-14T04:31:57.302Z,30.95
2023-05-14T04:32:56.340Z,33.09
2023-05-14T04:33:56.267Z,33.81
2023-05-14T04:34:57.258Z,31.37
2023-05-14T04:35:57.260Z,32.47
2023-05-14T04:36:57.246Z,30.01
2023-05-14T04:37:57.256Z,29.97
2023-05-14T04:38:56.227Z,30.03
2023-05-14T04:39:57.234Z,27.29
2023-05-14T04:40:56.213Z,31.66
2023-05-14T04:41:56.232Z,34.53
2023-05-14T04:42:57.190Z,31.57
2023-05-14T04:43:56.204Z,29.43
2023-05-14T04:44:57.187Z,29.65
2023-05-14T04:45:57.211Z,30.84
2023-05-14T04:46:56.169Z,29.67
2023-05-14T04:47:57.196Z,32.09
2023-05-14T04:48:56.160Z,29.90
2023-05-14T04:49:57.151Z,29.86
2023-05-14T04:50:56.145Z,33.30
2023-05-14T04:51:57.143Z,32.59
2023-05-14T04:52:57.121Z,30.29
2023-05-14T04:53:56.121Z,29.99
2023-05-14T04:54:57.111Z,33.28
2023-05-14T04:55:57.114Z,28.81
2023-05-14T04:56:57.102Z,32.17
2023-05-14T04:57:57.130Z,30.66
2023-05-14T04:58:57.080Z,29.98
2023-05-14T04:59:57.068Z,31.27
2023-05-14T05:00:57.110Z,32.04
2023-05-14T05:01:56.071Z,31.88
2023-05-14T05:02:56.125Z,28.55
2023-05-14T05:03:57.142Z,29.12
2023-05-14T05:04:57.048Z,30.30
2023-05-14T05:05:57.040Z,30.90
2023-05-14T05:06:57.033Z,29.77
2023-05-14T05:07:56.019Z,30.11
2023-05-14T05:08:56.009Z,30.86
2023-05-14T05:09:56.023Z,29.88
2023-05-14T05:10:56.021Z,31.08
2023-05-14T05:11:57.005Z,30.57
2023-05-14T05:12:56.002Z,30.48
2023-05-14T05:13:57.011Z,28.96
2023-05-14T05:14:56.979Z,29.48
2023-05-14T05:15:57.044Z,30.24
2023-05-14T05:16:55.968Z,31.83
2023-05-14T05:17:57.002Z,31.47
2023-05-14T05:18:57.047Z,29.41
2023-05-14T05:19:56.945Z,31.86
2023-05-14T05:20:56.952Z,31.62
2023-05-14T05:21:56.950Z,29.72
2023-05-14T05:22:56.934Z,33.92
2023-05-14T05:23:55.916Z,34.44
2023-05-14T05:24:55.950Z,29.89
2023-05-14T05:25:55.921Z,29.07
2023-05-14T05:26:56.914Z,32.08
2023-05-14T05:27:56.916Z,31.93
2023-05-14T05:28:55.913Z,32.14
2023-05-14T05:29:55.899Z,29.78
2023-05-14T05:30:55.952Z,31.88
2023-05-14T05:31:56.915Z,29.60
2023-05-14T05:32:55.913Z,32.79
2023-05-14T05:33:55.863Z,28.11
2023-05-14T05:34:55.857Z,33.08
2023-05-14T05:35:55.837Z,31.53
2023-05-14T05:36:56.832Z,30.84
2023-05-14T05:37:58.545Z,33.51
2023-05-14T05:38:55.820Z,33.55
2023-05-14T05:39:55.817Z,32.79
2023-05-14T05:40:55.807Z,32.28
2023-05-14T05:41:56.790Z,31.97
2023-05-14T05:42:55.794Z,31.11
2023-05-14T05:43:55.783Z,31.35
2023-05-14T05:44:55.766Z,28.90
2023-05-14T05:45:55.781Z,33.69
2023-05-14T05:46:56.900Z,33.42
2023-05-14T05:47:55.835Z,29.65
2023-05-14T05:48:55.751Z,31.34
2023-05-14T05:49:55.734Z,32.05
2023-05-14T05:50:56.724Z,29.94
2023-05-14T05:51:55.719Z,33.81
2023-05-14T05:52:55.718Z,33.07
2023-05-14T05:53:56.708Z,32.27
2023-05-14T05:54:55.696Z,30.16
2023-05-14T05:55:55.700Z,30.64
2023-05-14T05:56:55.693Z,32.04
2023-05-14T05:57:55.704Z,31.05
2023-05-14T05:58:56.702Z,35.00
2023-05-14T05:59:56.673Z,32.13
2023-05-14T06:00:56.663Z,33.68
2023-05-14T06:01:56.717Z,33.50
2023-05-14T06:02:55.694Z,31.22
2023-05-14T06:03:56.671Z,31.58
2023-05-14T06:04:55.704Z,31.43
2023-05-14T06:05:56.630Z,30.78
2023-05-14T06:06:55.657Z,29.56
2023-05-14T06:07:55.620Z,33.53
2023-05-14T06:08:56.616Z,29.89
2023-05-14T06:09:56.640Z,31.45
2023-05-14T06:10:56.630Z,32.44
2023-05-14T06:11:56.612Z,31.54
2023-05-14T06:12:56.607Z,31.64
2023-05-14T06:13:56.585Z,32.79
2023-05-14T06:14:55.599Z,30.60
2023-05-14T06:15:56.567Z,27.17
2023-05-14T06:16:55.731Z,30.51
2023-05-14T06:17:55.627Z,30.87
2023-05-14T06:18:56.612Z,34.30
2023-05-14T06:19:55.557Z,34.18
2023-05-14T06:20:56.547Z,32.44
2023-05-14T06:21:55.558Z,31.96
2023-05-14T06:22:55.529Z,26.90
2023-05-14T06:23:55.532Z,32.01
2023-05-14T06:24:56.520Z,30.68
2023-05-14T06:25:56.542Z,32.46
2023-05-14T06:26:56.532Z,34.00
2023-05-14T06:27:56.494Z,32.84
2023-05-14T06:28:55.480Z,34.55
2023-05-14T06:29:56.485Z,31.81
2023-05-14T06:30:56.479Z,32.18
2023-05-14T06:31:56.526Z,33.53
2023-05-14T06:32:55.545Z,29.35
2023-05-14T06:33:56.497Z,33.48
2023-05-14T06:34:56.526Z,32.19
2023-05-14T06:35:56.448Z,32.40
2023-05-14T06:36:56.473Z,31.33
2023-05-14T06:37:56.434Z,32.77
2023-05-14T06:38:56.436Z,32.37
2023-05-14T06:39:57.773Z,32.12
2023-05-14T06:40:56.543Z,36.95
2023-05-14T06:41:56.553Z,29.76
2023-05-14T06:42:56.544Z,31.15
2023-05-14T06:43:56.544Z,35.45
2023-05-14T06:44:55.546Z,32.32
2023-05-14T06:45:56.555Z,31.72
2023-05-14T06:46:55.569Z,30.58
2023-05-14T06:47:56.613Z,36.90
2023-05-14T06:48:57.315Z,30.39
2023-05-14T06:49:55.562Z,35.83
2023-05-14T06:50:55.540Z,36.17
2023-05-14T06:51:56.521Z,35.47
2023-05-14T06:52:55.535Z,36.29
2023-05-14T06:53:56.504Z,33.21
2023-05-14T06:54:55.512Z,34.75
2023-05-14T06:55:55.514Z,34.62
2023-05-14T06:56:56.499Z,30.74
2023-05-14T06:57:56.486Z,33.89
2023-05-14T06:58:55.481Z,33.67
2023-05-14T06:59:55.476Z,35.07
2023-05-14T07:00:55.461Z,29.32
2023-05-14T07:01:56.539Z,32.86
2023-05-14T07:02:55.482Z,31.81
2023-05-14T07:03:55.476Z,34.42
2023-05-14T07:04:56.461Z,33.79
2023-05-14T07:05:55.494Z,32.45
2023-05-14T07:06:55.434Z,34.48
2023-05-14T07:07:55.432Z,29.20
2023-05-14T07:08:56.424Z,35.13
2023-05-14T07:09:55.417Z,32.25
2023-05-14T07:10:56.403Z,34.89
2023-05-14T07:11:56.413Z,33.43
2023-05-14T07:12:55.405Z,32.94
2023-05-14T07:13:55.418Z,32.76
2023-05-14T07:14:55.381Z,35.71
2023-05-14T07:15:56.373Z,34.61
2023-05-14T07:16:55.413Z,30.37
2023-05-14T07:17:55.475Z,30.75
2023-05-14T07:18:55.447Z,35.27
2023-05-14T07:19:56.361Z,39.55
2023-05-14T07:20:56.346Z,33.96
2023-05-14T07:21:56.368Z,36.04
2023-05-14T07:22:55.332Z,36.71
2023-05-14T07:23:56.313Z,37.24
2023-05-14T07:24:56.315Z,38.42
2023-05-14T07:25:56.304Z,34.35
2023-05-14T07:26:55.303Z,34.53
2023-05-14T07:27:56.293Z,38.85
2023-05-14T07:28:56.290Z,38.17
2023-05-14T07:29:56.283Z,37.65
2023-05-14T07:30:56.292Z,37.91
2023-05-14T07:31:55.279Z,40.64
2023-05-14T07:32:56.295Z,41.72
2023-05-14T07:33:56.272Z,39.60
2023-05-14T07:34:56.244Z,37.42
2023-05-14T07:35:55.227Z,37.80
2023-05-14T07:36:55.246Z,36.32
2023-05-14T07:37:55.244Z,39.31
2023-05-14T07:38:55.204Z,41.15
2023-05-14T07:39:55.200Z,36.33
2023-05-14T07:40:56.195Z,36.89
2023-05-14T07:41:56.269Z,36.39
2023-05-14T07:42:55.307Z,40.34
2023-05-14T07:43:55.370Z,41.48
2023-05-14T07:44:55.426Z,39.73
2023-05-14T07:45:55.499Z,40.88
2023-05-14T07:46:55.581Z,40.41
2023-05-14T07:47:55.775Z,44.48
2023-05-14T07:48:56.649Z,41.27
2023-05-14T07:49:56.731Z,43.27
2023-05-14T07:50:55.782Z,44.62
2023-05-14T07:51:55.838Z,42.23
2023-05-14T07:52:56.881Z,38.66
2023-05-14T07:53:55.952Z,40.54
2023-05-14T07:54:55.974Z,41.55
2023-05-14T07:55:57.087Z,39.76
2023-05-14T07:56:57.081Z,43.86
2023-05-14T07:57:57.167Z,39.64
2023-05-14T07:58:56.208Z,41.07
2023-05-14T07:59:57.302Z,41.52
2023-05-14T08:00:57.353Z,42.06
2023-05-14T08:01:57.404Z,40.94
2023-05-14T08:02:56.573Z,43.51
2023-05-14T08:03:56.629Z,45.70
2023-05-14T08:04:56.610Z,45.28
2023-05-14T08:05:57.659Z,49.05
2023-05-14T08:06:57.729Z,46.40
2023-05-14T08:07:56.801Z,48.59
2023-05-14T08:08:57.865Z,50.61
2023-05-14T08:09:57.935Z,49.22
2023-05-14T08:10:58.020Z,49.86
2023-05-14T08:11:58.043Z,47.42
2023-05-14T08:12:57.110Z,50.02
2023-05-14T08:13:57.163Z,52.44
2023-05-14T08:14:57.226Z,47.32
2023-05-14T08:15:58.272Z,52.21
2023-05-14T08:16:57.400Z,47.72
2023-05-14T08:17:58.464Z,50.08
2023-05-14T08:18:58.501Z,50.20
2023-05-14T08:19:57.524Z,47.21
2023-05-14T08:20:58.578Z,50.09
2023-05-14T08:21:57.639Z,50.69
2023-05-14T08:22:57.721Z,49.91
2023-05-14T08:23:58.742Z,47.07
2023-05-14T08:24:57.786Z,47.50
2023-05-14T08:25:58.882Z,47.00
2023-05-14T08:26:58.906Z,48.27
2023-05-14T08:27:57.963Z,49.23
2023-05-14T08:28:58.002Z,49.88
2023-05-14T08:29:58.050Z,48.46
2023-05-14T08:30:59.144Z,46.53
2023-05-14T08:31:59.092Z,46.02
2023-05-14T08:32:59.236Z,46.32
2023-05-14T08:33:58.270Z,48.43
2023-05-14T08:34:59.306Z,45.63
2023-05-14T08:35:58.372Z,47.65
2023-05-14T08:36:59.427Z,48.52
2023-05-14T08:37:59.467Z,47.06
2023-05-14T08:38:59.525Z,48.27
2023-05-14T08:39:59.552Z,51.14
2023-05-14T08:40:59.638Z,47.69
2023-05-14T08:41:59.752Z,49.59
2023-05-14T08:42:59.702Z,49.08
2023-05-14T08:43:59.759Z,47.95
2023-05-14T08:44:58.813Z,48.46
2023-05-14T08:45:58.839Z,48.66
2023-05-14T08:46:59.909Z,47.67
2023-05-14T08:48:00.028Z,47.92
2023-05-14T08:49:00.035Z,47.25
2023-05-14T08:49:59.048Z,47.03
2023-05-14T08:51:00.093Z,46.21
2023-05-14T08:52:00.139Z,48.20
2023-05-14T08:52:59.228Z,49.15
2023-05-14T08:54:00.220Z,49.64
2023-05-14T08:54:59.266Z,50.07
2023-05-14T08:56:00.323Z,49.04
2023-05-14T08:57:00.367Z,48.35
2023-05-14T08:58:00.430Z,46.33
2023-05-14T08:59:00.445Z,48.18
2023-05-14T09:00:00.521Z,48.58
2023-05-14T09:01:00.524Z,52.38
2023-05-14T09:02:00.615Z,48.49
2023-05-14T09:03:00.706Z,48.01
2023-05-14T09:04:00.679Z,49.64
2023-05-14T09:05:00.707Z,47.99
2023-05-14T09:06:00.745Z,46.98
2023-05-14T09:06:59.769Z,48.03
2023-05-14T09:07:59.813Z,48.12
2023-05-14T09:08:59.854Z,49.03
2023-05-14T09:09:59.865Z,49.57
2023-05-14T09:11:00.910Z,46.78
2023-05-14T09:12:00.954Z,48.19
2023-05-14T09:12:59.999Z,47.01
2023-05-14T09:14:01.057Z,43.10
2023-05-14T09:15:00.063Z,47.59
2023-05-14T09:16:01.105Z,47.76
2023-05-14T09:17:00.163Z,48.46
2023-05-14T09:18:01.265Z,47.23
2023-05-14T09:19:01.277Z,49.44
2023-05-14T09:20:01.277Z,46.90
2023-05-14T09:21:01.257Z,48.23
2023-05-14T09:22:01.341Z,46.34
2023-05-14T09:23:01.337Z,45.72
2023-05-14T09:24:01.331Z,47.88
2023-05-14T09:25:01.387Z,46.37
2023-05-14T09:26:01.394Z,49.91
2023-05-14T09:27:01.443Z,47.26
2023-05-14T09:28:01.489Z,49.64
2023-05-14T09:29:00.482Z,46.95
2023-05-14T09:30:00.557Z,46.05
2023-05-14T09:31:01.565Z,47.01
2023-05-14T09:32:00.638Z,49.09
2023-05-14T09:33:00.671Z,46.29
2023-05-14T09:34:01.665Z,46.81
2023-05-14T09:35:01.685Z,45.76
2023-05-14T09:36:01.710Z,46.88
2023-05-14T09:37:00.740Z,49.78
2023-05-14T09:38:01.758Z,48.10
2023-05-14T09:39:01.779Z,50.63
2023-05-14T09:40:00.809Z,50.86
2023-05-14T09:41:01.816Z,50.34
2023-05-14T09:42:01.847Z,48.78
2023-05-14T09:43:01.881Z,47.79
2023-05-14T09:44:00.890Z,47.95
2023-05-14T09:45:01.936Z,49.29
2023-05-14T09:46:01.938Z,47.70
2023-05-14T09:47:00.970Z,48.34
2023-05-14T09:48:01.160Z,50.67
2023-05-14T09:49:00.999Z,46.64
2023-05-14T09:50:02.017Z,48.10
2023-05-14T09:51:03.340Z,49.35
2023-05-14T09:52:01.046Z,52.51
2023-05-14T09:53:01.024Z,50.50
2023-05-14T09:54:01.045Z,45.74
2023-05-14T09:55:01.013Z,51.34
2023-05-14T09:56:01.021Z,44.35
2023-05-14T09:57:02.002Z,46.37
2023-05-14T09:58:00.990Z,49.55
2023-05-14T09:59:00.995Z,47.23
2023-05-14T10:00:00.989Z,49.22
2023-05-14T10:01:01.036Z,50.33
2023-05-14T10:02:00.978Z,45.67
2023-05-14T10:03:01.972Z,48.69
2023-05-14T10:04:00.994Z,46.92
2023-05-14T10:05:01.967Z,46.96
2023-05-14T10:06:01.968Z,48.96
2023-05-14T10:07:00.945Z,44.89
2023-05-14T10:08:01.934Z,47.87
2023-05-14T10:09:00.931Z,48.02
2023-05-14T10:10:01.979Z,46.95
2023-05-14T10:11:01.913Z,48.87
2023-05-14T10:12:00.906Z,48.87
2023-05-14T10:13:01.891Z,48.33
2023-05-14T10:14:00.888Z,45.20
2023-05-14T10:15:00.884Z,48.44
2023-05-14T10:16:01.888Z,48.88
2023-05-14T10:17:00.970Z,48.27
2023-05-14T10:18:01.939Z,49.58
2023-05-14T10:19:00.888Z,48.98
2023-05-14T10:20:01.864Z,46.89
2023-05-14T10:21:01.853Z,46.63
2023-05-14T10:22:01.870Z,46.03
2023-05-14T10:23:00.851Z,48.81
2023-05-14T10:24:00.840Z,47.51
2023-05-14T10:25:01.819Z,48.86
2023-05-14T10:26:01.811Z,46.19
2023-05-14T10:27:01.800Z,44.45
2023-05-14T10:28:01.805Z,44.20
2023-05-14T10:29:01.805Z,48.27
2023-05-14T10:30:01.815Z,44.56
2023-05-14T10:31:00.923Z,48.48
2023-05-14T10:32:00.796Z,47.11
2023-05-14T10:33:01.835Z,46.06
2023-05-14T10:34:00.775Z,46.60
2023-05-14T10:35:00.755Z,47.07
2023-05-14T10:36:00.762Z,48.70
2023-05-14T10:37:01.755Z,46.25
2023-05-14T10:38:01.734Z,47.93
2023-05-14T10:39:01.726Z,47.82
2023-05-14T10:40:01.742Z,48.74
2023-05-14T10:41:01.713Z,49.44
2023-05-14T10:42:00.709Z,46.44
2023-05-14T10:43:01.717Z,44.23
2023-05-14T10:44:00.710Z,47.35
2023-05-14T10:45:01.746Z,45.38
2023-05-14T10:46:01.713Z,48.11
2023-05-14T10:47:01.764Z,46.45
2023-05-14T10:48:00.711Z,44.29
2023-05-14T10:49:01.704Z,45.37
2023-05-14T10:50:00.650Z,47.80
2023-05-14T10:51:00.698Z,45.95
2023-05-14T10:52:00.655Z,46.56
2023-05-14T10:53:01.656Z,48.17
2023-05-14T10:54:00.644Z,48.18
2023-05-14T10:55:03.416Z,44.83
2023-05-14T10:56:01.614Z,52.57
2023-05-14T10:57:00.606Z,49.42
2023-05-14T10:58:00.611Z,48.14
2023-05-14T10:59:00.604Z,48.52
2023-05-14T11:00:00.616Z,45.28
2023-05-14T11:01:01.605Z,47.23
2023-05-14T11:02:00.598Z,46.07
2023-05-14T11:03:00.638Z,45.86
2023-05-14T11:04:01.597Z,50.08
2023-05-14T11:05:01.587Z,49.30
2023-05-14T11:06:00.542Z,49.74
2023-05-14T11:07:01.557Z,47.44
2023-05-14T11:08:01.558Z,47.59
2023-05-14T11:09:01.549Z,45.31
2023-05-14T11:10:00.523Z,49.39
2023-05-14T11:11:01.517Z,48.63
2023-05-14T11:12:00.517Z,46.34
2023-05-14T11:13:01.505Z,47.56
2023-05-14T11:14:00.506Z,45.34
2023-05-14T11:15:01.501Z,45.91
2023-05-14T11:16:08.761Z,45.56
2023-05-14T11:17:01.521Z,45.90
2023-05-14T11:18:00.504Z,46.35
2023-05-14T11:19:01.488Z,47.72
2023-05-14T11:20:01.462Z,49.08
2023-05-14T11:21:00.506Z,50.77
2023-05-14T11:22:00.434Z,50.47
2023-05-14T11:23:00.432Z,46.80
2023-05-14T11:24:00.430Z,47.45
2023-05-14T11:25:01.425Z,48.90
2023-05-14T11:26:01.465Z,45.33
2023-05-14T11:27:01.405Z,50.79
2023-05-14T11:28:00.388Z,49.19
2023-05-14T11:29:00.386Z,49.39
2023-05-14T11:30:01.380Z,47.59
2023-05-14T11:31:01.377Z,47.72
2023-05-14T11:32:01.485Z,46.91
2023-05-14T11:33:02.213Z,46.65
2023-05-14T11:34:00.363Z,49.48
2023-05-14T11:35:00.361Z,49.43
2023-05-14T11:36:01.337Z,46.34
2023-05-14T11:37:01.371Z,48.02
2023-05-14T11:38:01.332Z,45.80
2023-05-14T11:39:01.341Z,48.46
2023-05-14T11:40:00.320Z,50.20
2023-05-14T11:41:01.322Z,45.74
2023-05-14T11:42:01.330Z,47.94
2023-05-14T11:43:01.293Z,46.09
2023-05-14T11:44:01.291Z,48.27
2023-05-14T11:45:01.293Z,46.99
2023-05-14T11:46:00.309Z,49.83
2023-05-14T11:47:00.268Z,48.29
2023-05-14T11:48:01.322Z,47.60
2023-05-14T11:49:01.261Z,45.52
2023-05-14T11:50:01.238Z,49.49
2023-05-14T11:51:01.230Z,45.89
2023-05-14T11:52:01.229Z,46.33
2023-05-14T11:53:01.245Z,52.13
2023-05-14T11:54:01.263Z,49.98
2023-05-14T11:55:00.210Z,49.56
2023-05-14T11:56:00.203Z,47.22
2023-05-14T11:57:01.198Z,50.50
2023-05-14T11:58:00.194Z,46.17
2023-05-14T11:59:01.214Z,49.40
2023-05-14T12:00:01.205Z,51.05
2023-05-14T12:01:01.186Z,49.29
2023-05-14T12:02:01.163Z,45.32
2023-05-14T12:03:00.283Z,49.52
2023-05-14T12:04:01.277Z,47.27
2023-05-14T12:05:01.143Z,46.11
2023-05-14T12:06:01.165Z,50.36
2023-05-14T12:07:00.125Z,47.79
2023-05-14T12:08:01.129Z,45.70
2023-05-14T12:09:00.137Z,48.52
2023-05-14T12:10:00.151Z,48.92
2023-05-14T12:11:01.094Z,48.94
2023-05-14T12:12:01.100Z,48.01
2023-05-14T12:13:01.093Z,50.46
2023-05-14T12:14:00.085Z,48.75
2023-05-14T12:15:00.100Z,48.47
2023-05-14T12:16:01.118Z,48.49
2023-05-14T12:17:00.046Z,48.35
2023-05-14T12:18:02.112Z,48.83
2023-05-14T12:19:01.200Z,50.50
2023-05-14T12:20:01.167Z,50.45
2023-05-14T12:21:01.172Z,50.60
2023-05-14T12:22:01.170Z,47.52
2023-05-14T12:23:00.157Z,49.12
2023-05-14T12:24:00.221Z,46.22
2023-05-14T12:25:01.200Z,47.24
2023-05-14T12:26:00.169Z,48.53
2023-05-14T12:27:01.161Z,51.72
2023-05-14T12:28:01.154Z,48.74
2023-05-14T12:29:01.155Z,49.16
2023-05-14T12:30:12.958Z,47.55
2023-05-14T12:31:01.158Z,47.80
2023-05-14T12:32:00.149Z,48.59
2023-05-14T12:33:00.226Z,49.50
2023-05-14T12:34:00.138Z,48.02
2023-05-14T12:35:01.139Z,46.34
2023-05-14T12:36:10.008Z,48.69
2023-05-14T12:37:01.115Z,48.97
2023-05-14T12:38:00.090Z,49.33
2023-05-14T12:39:00.102Z,49.63
2023-05-14T12:40:00.132Z,50.83
2023-05-14T12:41:01.112Z,49.04
2023-05-14T12:42:00.098Z,46.24
2023-05-14T12:43:01.076Z,49.21
2023-05-14T12:44:00.099Z,49.22
2023-05-14T12:45:00.065Z,48.30
2023-05-14T12:46:00.083Z,46.42
2023-05-14T12:47:00.104Z,49.02
2023-05-14T12:48:01.120Z,48.55
2023-05-14T12:49:01.037Z,50.64
2023-05-14T12:50:01.032Z,46.05
2023-05-14T12:51:01.032Z,47.32
2023-05-14T12:52:19.422Z,48.53
2023-05-14T12:53:01.023Z,48.77